createdAt,value
2017-08-28T00:01:50.913Z,18.48
2017-08-28T00:06:52.877Z,18.42
2017-08-28T00:11:55.305Z,18.39
2017-08-28T00:16:57.900Z,18.27
2017-08-28T00:21:59.911Z,18.19
2017-08-28T00:27:02.223Z,18.09
2017-08-28T00:32:05.799Z,17.82
2017-08-28T00:37:08.422Z,17.76
2017-08-28T00:42:12.269Z,17.74
2017-08-28T00:47:14.629Z,17.78
2017-08-28T00:52:17.166Z,17.78
2017-08-28T00:57:19.145Z,17.84
2017-08-28T01:02:21.611Z,17.92
2017-08-28T01:07:23.618Z,17.85
2017-08-28T01:12:25.960Z,17.75
2017-08-28T01:17:28.616Z,17.70
2017-08-28T01:22:31.288Z,17.58
2017-08-28T01:27:34.185Z,17.59
2017-08-28T01:32:36.827Z,17.46
2017-08-28T01:37:39.608Z,17.52
2017-08-28T01:42:41.614Z,17.50
2017-08-28T01:47:43.890Z,17.43
2017-08-28T01:52:46.755Z,17.49
2017-08-28T01:57:49.427Z,17.46
2017-08-28T02:02:51.900Z,17.31
2017-08-28T02:07:54.564Z,17.15
2017-08-28T02:12:57.371Z,17.00
2017-08-28T02:18:00.149Z,16.81
2017-08-28T02:23:04.030Z,16.66
2017-08-28T02:28:06.883Z,16.50
2017-08-28T02:33:08.949Z,16.57
2017-08-28T02:38:11.830Z,16.61
2017-08-28T02:43:14.030Z,16.87
2017-08-28T02:48:16.090Z,17.01
2017-08-28T02:53:18.622Z,17.08
2017-08-28T02:58:22.493Z,17.07
2017-08-28T03:03:27.112Z,17.07
2017-08-28T03:08:33.256Z,16.97
2017-08-28T03:13:37.684Z,16.90
2017-08-28T03:18:40.526Z,16.83
2017-08-28T03:23:44.895Z,16.84
2017-08-28T03:28:50.938Z,16.90
2017-08-28T03:33:54.292Z,16.88
2017-08-28T03:39:03.187Z,16.77
2017-08-28T03:44:09.755Z,16.61
2017-08-28T03:49:16.268Z,16.35
2017-08-28T03:54:23.328Z,16.33
2017-08-28T03:59:29.831Z,16.57
2017-08-28T04:04:34.056Z,16.93
2017-08-28T04:15:01.809Z,16.68
2017-08-28T04:20:06.105Z,16.61
2017-08-28T04:25:13.865Z,16.61
2017-08-28T04:30:19.252Z,16.59
2017-08-28T04:35:25.682Z,16.56
2017-08-28T04:40:32.842Z,16.50
2017-08-28T04:45:36.322Z,16.61
2017-08-28T04:50:40.234Z,16.69
2017-08-28T04:55:43.268Z,16.72
2017-08-28T05:00:46.071Z,16.80
2017-08-28T05:05:49.485Z,16.80
2017-08-28T05:10:52.424Z,16.71
2017-08-28T05:15:55.415Z,16.74
2017-08-28T05:20:58.181Z,16.82
2017-08-28T05:26:01.074Z,16.77
2017-08-28T05:31:04.040Z,16.76
2017-08-28T05:36:09.218Z,16.85
2017-08-28T05:41:12.124Z,16.96
2017-08-28T05:46:14.951Z,17.17
2017-08-28T05:51:17.747Z,17.37
2017-08-28T05:56:20.588Z,17.52
2017-08-28T06:01:23.425Z,17.64
2017-08-28T06:06:26.265Z,17.85
2017-08-28T06:11:29.091Z,17.82
2017-08-28T06:16:31.937Z,18.20
2017-08-28T06:21:34.800Z,18.41
2017-08-28T06:26:37.645Z,18.61
2017-08-28T06:31:40.515Z,18.70
2017-08-28T06:36:43.688Z,18.86
2017-08-28T06:41:46.461Z,18.81
2017-08-28T06:46:50.080Z,19.24
2017-08-28T06:51:52.114Z,19.72
2017-08-28T06:57:03.932Z,20.15
2017-08-28T07:02:11.994Z,20.18
2017-08-28T07:07:26.175Z,20.51
2017-08-28T07:12:33.081Z,20.67
2017-08-28T07:17:39.567Z,20.61
2017-08-28T07:22:44.709Z,20.80
2017-08-28T07:27:49.710Z,20.80
2017-08-28T07:38:08.435Z,21.08
2017-08-28T07:43:11.574Z,21.48
2017-08-28T07:48:13.635Z,22.09
2017-08-28T07:53:15.615Z,22.12
2017-08-28T07:58:17.569Z,22.08
2017-08-28T08:03:19.584Z,22.19
2017-08-28T08:08:21.578Z,22.57
2017-08-28T08:13:23.589Z,23.00
2017-08-28T08:18:25.675Z,23.31
2017-08-28T08:23:27.710Z,23.61
2017-08-28T08:28:29.705Z,23.80
2017-08-28T08:39:07.688Z,24.21
2017-08-28T08:44:09.885Z,24.23
2017-08-28T08:49:11.855Z,24.46
2017-08-28T08:54:13.819Z,24.74
2017-08-28T08:59:15.822Z,24.71
2017-08-28T09:04:17.772Z,25.00
2017-08-28T09:09:19.717Z,25.02
2017-08-28T09:14:21.646Z,25.21
2017-08-28T09:19:24.736Z,25.34
2017-08-28T09:24:26.662Z,25.59
2017-08-28T09:29:28.563Z,25.75
2017-08-28T09:34:30.504Z,25.62
2017-08-28T09:39:32.444Z,25.67
2017-08-28T09:44:34.420Z,25.61
2017-08-28T09:49:36.339Z,25.93
2017-08-28T09:54:38.348Z,26.08
2017-08-28T09:59:40.352Z,26.27
2017-08-28T10:04:42.296Z,26.55
2017-08-28T10:09:44.452Z,26.53
2017-08-28T10:14:46.431Z,26.49
2017-08-28T10:19:48.414Z,26.53
2017-08-28T10:24:50.550Z,26.63
2017-08-28T10:29:52.556Z,26.27
2017-08-28T10:34:54.476Z,26.81
2017-08-28T10:39:56.443Z,27.26
2017-08-28T10:44:58.522Z,27.13
2017-08-28T10:50:00.970Z,27.41
2017-08-28T10:55:03.307Z,27.55
2017-08-28T11:00:05.272Z,27.78
2017-08-28T11:05:07.295Z,27.66
2017-08-28T11:10:09.240Z,27.50
2017-08-28T11:15:11.299Z,27.72
2017-08-28T11:20:13.249Z,28.05
2017-08-28T11:25:15.203Z,28.15
2017-08-28T11:30:17.183Z,28.26
2017-08-28T11:35:21.695Z,28.31
2017-08-28T11:40:26.456Z,28.69
2017-08-28T11:45:28.422Z,28.12
2017-08-28T11:50:35.654Z,27.53
2017-08-28T11:55:37.890Z,27.61
2017-08-28T12:00:44.861Z,28.41
2017-08-28T12:05:47.325Z,28.81
2017-08-28T12:10:49.435Z,28.61
2017-08-28T12:15:51.649Z,28.45
2017-08-28T12:20:53.808Z,28.48
2017-08-28T12:26:02.026Z,28.33
2017-08-28T12:31:04.639Z,28.50
2017-08-28T12:36:06.974Z,28.08
2017-08-28T12:41:08.957Z,28.46
2017-08-28T12:46:10.939Z,27.96
2017-08-28T12:51:12.871Z,27.39
2017-08-28T12:56:14.862Z,27.86
2017-08-28T13:01:20.457Z,27.62
2017-08-28T13:06:24.156Z,27.66
2017-08-28T13:11:26.367Z,27.86
2017-08-28T13:16:29.069Z,28.28
2017-08-28T13:21:31.417Z,28.56
2017-08-28T13:26:37.485Z,28.34
2017-08-28T13:31:39.749Z,28.35
2017-08-28T13:36:41.692Z,28.50
2017-08-28T13:41:43.612Z,28.16
2017-08-28T13:46:45.579Z,27.80
2017-08-28T13:51:47.535Z,28.32
2017-08-28T13:56:49.500Z,28.35
2017-08-28T14:01:51.423Z,28.06
2017-08-28T14:06:53.467Z,28.00
2017-08-28T14:11:55.419Z,28.50
2017-08-28T14:16:57.367Z,28.92
2017-08-28T14:21:59.294Z,28.69
2017-08-28T14:27:01.276Z,28.71
2017-08-28T14:32:03.271Z,29.14
2017-08-28T14:37:05.234Z,29.43
2017-08-28T14:42:07.161Z,29.65
2017-08-28T14:47:09.406Z,29.16
2017-08-28T14:52:11.320Z,28.79
2017-08-28T14:57:13.252Z,28.15
2017-08-28T15:02:15.199Z,28.27
2017-08-28T15:07:17.233Z,28.20
2017-08-28T15:12:20.667Z,28.50
2017-08-28T15:17:22.754Z,28.43
2017-08-28T15:22:24.703Z,28.36
2017-08-28T15:27:26.967Z,27.90
2017-08-28T15:32:28.916Z,27.35
2017-08-28T15:37:30.832Z,27.12
2017-08-28T15:42:32.750Z,27.38
2017-08-28T15:47:34.686Z,27.45
2017-08-28T15:52:37.423Z,27.77
2017-08-28T15:57:39.399Z,28.10
2017-08-28T16:02:41.291Z,28.02
2017-08-28T16:07:43.255Z,27.92
2017-08-28T16:12:45.520Z,28.07
2017-08-28T16:17:47.548Z,27.88
2017-08-28T16:22:49.471Z,27.79
2017-08-28T16:27:51.458Z,27.84
2017-08-28T16:32:53.426Z,27.68
2017-08-28T16:37:55.421Z,27.35
2017-08-28T16:42:57.965Z,27.29
2017-08-28T16:48:00.008Z,27.04
2017-08-28T16:53:01.959Z,26.68
2017-08-28T16:58:03.880Z,26.59
2017-08-28T17:03:05.821Z,26.63
2017-08-28T17:08:07.746Z,26.44
2017-08-28T17:13:10.132Z,26.34
2017-08-28T17:18:12.288Z,26.01
2017-08-28T17:23:14.229Z,25.86
2017-08-28T17:33:34.165Z,25.66
2017-08-28T17:38:43.186Z,25.54
2017-08-28T17:43:49.124Z,25.33
2017-08-28T17:48:56.705Z,25.23
2017-08-28T17:54:04.081Z,25.21
2017-08-28T17:59:11.546Z,24.91
2017-08-28T18:04:14.598Z,24.87
2017-08-28T18:09:19.712Z,24.75
2017-08-28T18:14:23.367Z,24.54
2017-08-28T18:19:25.398Z,24.41
2017-08-28T18:24:27.921Z,24.39
2017-08-28T18:29:29.924Z,24.15
2017-08-28T18:34:36.513Z,24.06
2017-08-28T18:39:38.746Z,24.04
2017-08-28T18:44:42.030Z,23.93
2017-08-28T18:49:45.325Z,23.77
2017-08-28T18:54:48.487Z,23.75
2017-08-28T18:59:51.652Z,23.50
2017-08-28T19:04:55.027Z,23.52
2017-08-28T19:09:58.317Z,23.50
2017-08-28T19:15:01.662Z,23.41
2017-08-28T19:20:05.994Z,23.36
2017-08-28T19:25:10.638Z,23.12
2017-08-28T19:30:15.932Z,23.14
2017-08-28T19:35:21.794Z,22.99
2017-08-28T19:40:28.553Z,22.98
2017-08-28T19:45:31.954Z,22.84
2017-08-28T19:50:35.613Z,22.83
2017-08-28T19:55:39.623Z,22.70
2017-08-28T20:00:44.250Z,22.74
2017-08-28T20:05:49.236Z,22.53
2017-08-28T20:10:52.401Z,22.60
2017-08-28T20:15:55.558Z,22.53
2017-08-28T20:20:58.875Z,22.52
2017-08-28T20:26:02.022Z,22.38
2017-08-28T20:31:05.184Z,22.29
2017-08-28T20:36:08.400Z,22.08
2017-08-28T20:41:11.584Z,22.09
2017-08-28T20:46:14.852Z,22.07
2017-08-28T20:51:18.152Z,22.12
2017-08-28T20:56:21.407Z,22.10
2017-08-28T21:01:24.555Z,21.92
2017-08-28T21:06:27.759Z,21.92
2017-08-28T21:11:30.913Z,21.87
2017-08-28T21:16:32.899Z,21.91
2017-08-28T21:21:34.871Z,21.84
2017-08-28T21:26:37.191Z,21.78
2017-08-28T21:31:39.137Z,21.72
2017-08-28T21:36:41.501Z,21.67
2017-08-28T21:41:43.496Z,21.68
2017-08-28T21:46:45.903Z,21.67
2017-08-28T21:51:47.831Z,21.67
2017-08-28T21:56:49.776Z,21.62
2017-08-28T22:01:51.863Z,21.37
2017-08-28T22:06:53.787Z,21.24
2017-08-28T22:11:56.043Z,21.11
2017-08-28T22:16:59.412Z,21.22
2017-08-28T22:22:01.447Z,21.03
2017-08-28T22:27:03.420Z,21.02
2017-08-28T22:32:05.346Z,21.06
2017-08-28T22:37:07.314Z,20.90
2017-08-28T22:42:09.317Z,21.02
2017-08-28T22:47:11.323Z,21.02
2017-08-28T22:52:13.361Z,21.03
2017-08-28T22:57:15.987Z,21.06
2017-08-28T23:02:18.638Z,20.98
2017-08-28T23:07:21.233Z,21.09
2017-08-28T23:12:23.935Z,21.04
2017-08-28T23:17:25.893Z,20.93
2017-08-28T23:22:27.983Z,21.00
2017-08-28T23:27:29.898Z,21.06
2017-08-28T23:32:32.264Z,21.07
2017-08-28T23:37:34.505Z,21.03
2017-08-28T23:42:36.487Z,21.07
2017-08-28T23:47:38.434Z,21.02
2017-08-28T23:52:40.991Z,20.90
2017-08-28T23:57:43.199Z,20.78
